Ursina, Pennsylvania
Current Conditions -  °F | °C
As of 6:45 PM on Monday 20 Oct 2014 (Local Time) from K2G4 Reporting Station
Overcast Overcast  
Wind Chill: 43°   Ceiling: 3900
Heat Index: 46°   Visibility: 10mi
Dew Point: 37°   Wind: 7mph
Humidity: 71%   Direction: 210°SSW
Pressure: 29.92"   Gusts: NA
Location:  39.82°N, 79.33°W
Report Text: K2G4 202245Z AUTO 21006KT 10SM BKN039 BKN060 OVC120 08/03 A2992 RMK AO1
Loading
Personal Weather Stations






























Interactive Weather Map
Tropical Storm Tracking
New forecast layout! Learn more

10-Day Weather Forecast

Advertisements
Track Severe Weather on mobile